createdAt,value
2023-06-27T00:00:58.027Z,2193.00
2023-06-27T00:01:58.120Z,2184.00
2023-06-27T00:02:58.290Z,2187.00
2023-06-27T00:03:58.401Z,2185.00
2023-06-27T00:04:58.281Z,2189.00
2023-06-27T00:05:58.330Z,2186.00
2023-06-27T00:06:58.433Z,2192.00
2023-06-27T00:07:58.464Z,2190.00
2023-06-27T00:08:58.518Z,2196.00
2023-06-27T00:09:58.667Z,2182.00
2023-06-27T00:10:58.628Z,2182.00
2023-06-27T00:11:58.688Z,2173.00
2023-06-27T00:12:58.761Z,2198.00
2023-06-27T00:13:58.833Z,2186.00
2023-06-27T00:14:58.929Z,2184.00
2023-06-27T00:15:58.961Z,2182.00
2023-06-27T00:16:59.020Z,2183.00
2023-06-27T00:17:59.099Z,2181.00
2023-06-27T00:18:59.131Z,2179.00
2023-06-27T00:19:59.380Z,2168.00
2023-06-27T00:20:59.257Z,2176.00
2023-06-27T00:21:59.320Z,2172.00
2023-06-27T00:22:59.382Z,2177.00
2023-06-27T00:23:59.440Z,2164.00
2023-06-27T00:24:59.506Z,2175.00
2023-06-27T00:25:59.551Z,2168.00
2023-06-27T00:26:59.611Z,2177.00
2023-06-27T00:27:59.674Z,2163.00
2023-06-27T00:28:59.754Z,2165.00
2023-06-27T00:29:59.778Z,2157.00
2023-06-27T00:30:59.887Z,2166.00
2023-06-27T00:31:59.890Z,2168.00
2023-06-27T00:32:59.960Z,2160.00
2023-06-27T00:34:00.031Z,2161.00
2023-06-27T00:35:00.070Z,2173.00
2023-06-27T00:36:00.133Z,2173.00
2023-06-27T00:37:00.196Z,2156.00
2023-06-27T00:38:00.281Z,2155.00
2023-06-27T00:39:00.308Z,2152.00
2023-06-27T00:40:00.394Z,2157.00
2023-06-27T00:41:00.447Z,2137.00
2023-06-27T00:42:00.490Z,2154.00
2023-06-27T00:43:00.561Z,2163.00
2023-06-27T00:44:00.627Z,2157.00
2023-06-27T00:45:00.678Z,2165.00
2023-06-27T00:46:00.751Z,2162.00
2023-06-27T00:47:00.809Z,2161.00
2023-06-27T00:48:00.931Z,2153.00
2023-06-27T00:49:00.993Z,2163.00
2023-06-27T00:50:01.016Z,2151.00
2023-06-27T00:51:01.070Z,2144.00
2023-06-27T00:52:01.108Z,2156.00
2023-06-27T00:53:01.176Z,2133.00
2023-06-27T00:54:01.263Z,2145.00
2023-06-27T00:55:01.289Z,2140.00
2023-06-27T00:56:01.353Z,2147.00
2023-06-27T00:57:01.425Z,2138.00
2023-06-27T00:58:01.558Z,2136.00
2023-06-27T00:59:01.567Z,2139.00
2023-06-27T01:00:01.610Z,2144.00
2023-06-27T01:01:01.938Z,2133.00
2023-06-27T01:02:01.720Z,2144.00
2023-06-27T01:03:01.844Z,2138.00
2023-06-27T01:04:01.909Z,2132.00
2023-06-27T01:05:01.920Z,2122.00
2023-06-27T01:06:09.008Z,2133.00
2023-06-27T01:07:02.005Z,2135.00
2023-06-27T01:08:01.966Z,2135.00
2023-06-27T01:09:02.301Z,2139.00
2023-06-27T01:10:01.943Z,2138.00
2023-06-27T01:11:01.936Z,2126.00
2023-06-27T01:12:01.937Z,2141.00
2023-06-27T01:13:01.917Z,2126.00
2023-06-27T01:14:01.914Z,2134.00
2023-06-27T01:15:01.913Z,2139.00
2023-06-27T01:16:01.914Z,2135.00
2023-06-27T01:17:01.889Z,2122.00
2023-06-27T01:18:01.932Z,2133.00
2023-06-27T01:19:01.874Z,2129.00
2023-06-27T01:20:01.863Z,2118.00
2023-06-27T01:21:01.856Z,2110.00
2023-06-27T01:22:01.853Z,2113.00
2023-06-27T01:23:01.848Z,2112.00
2023-06-27T01:24:01.848Z,2112.00
2023-06-27T01:25:01.853Z,2105.00
2023-06-27T01:26:01.825Z,2116.00
2023-06-27T01:27:01.822Z,2108.00
2023-06-27T01:28:01.811Z,2111.00
2023-06-27T01:29:01.870Z,2119.00
2023-06-27T01:30:01.918Z,2096.00
2023-06-27T01:31:02.050Z,2100.00
2023-06-27T01:32:02.049Z,2100.00
2023-06-27T01:33:02.166Z,2089.00
2023-06-27T01:34:02.146Z,2101.00
2023-06-27T01:35:02.221Z,2098.00
2023-06-27T01:36:02.261Z,2097.00
2023-06-27T01:37:02.304Z,2101.00
2023-06-27T01:38:02.381Z,2097.00
2023-06-27T01:39:02.436Z,2089.00
2023-06-27T01:40:02.501Z,2088.00
2023-06-27T01:41:02.536Z,2085.00
2023-06-27T01:42:02.696Z,2104.00
2023-06-27T01:43:02.700Z,2078.00
2023-06-27T01:44:02.756Z,2093.00
2023-06-27T01:45:02.789Z,2077.00
2023-06-27T01:46:02.879Z,2093.00
2023-06-27T01:47:02.900Z,2079.00
2023-06-27T01:48:03.009Z,2067.00
2023-06-27T01:49:03.011Z,2073.00
2023-06-27T01:50:03.067Z,2068.00
2023-06-27T01:51:03.116Z,2079.00
2023-06-27T01:52:03.187Z,2070.00
2023-06-27T01:53:03.250Z,2082.00
2023-06-27T01:54:03.330Z,2077.00
2023-06-27T01:55:03.383Z,2075.00
2023-06-27T01:56:03.424Z,2075.00
2023-06-27T01:57:03.489Z,2067.00
2023-06-27T01:58:03.539Z,2071.00
2023-06-27T01:59:03.601Z,2060.00
2023-06-27T02:00:03.652Z,2066.00
2023-06-27T02:01:03.752Z,2069.00
2023-06-27T02:02:03.867Z,2074.00
2023-06-27T02:03:03.974Z,2053.00
2023-06-27T02:04:03.879Z,2057.00
2023-06-27T02:05:03.925Z,2061.00
2023-06-27T02:06:03.995Z,2055.00
2023-06-27T02:07:04.074Z,2065.00
2023-06-27T02:08:04.107Z,2051.00
2023-06-27T02:09:04.197Z,2045.00
2023-06-27T02:10:04.236Z,2057.00
2023-06-27T02:11:04.304Z,2037.00
2023-06-27T02:12:04.352Z,2057.00
2023-06-27T02:13:04.414Z,2049.00
2023-06-27T02:14:04.495Z,2055.00
2023-06-27T02:15:04.539Z,2042.00
2023-06-27T02:16:04.596Z,2050.00
2023-06-27T02:17:04.653Z,2047.00
2023-06-27T02:18:04.741Z,2048.00
2023-06-27T02:19:04.773Z,2038.00
2023-06-27T02:20:04.843Z,2037.00
2023-06-27T02:21:04.905Z,2031.00
2023-06-27T02:22:04.958Z,2038.00
2023-06-27T02:23:05.029Z,2030.00
2023-06-27T02:24:05.067Z,2020.00
2023-06-27T02:25:05.133Z,2044.00
2023-06-27T02:26:05.192Z,2040.00
2023-06-27T02:27:05.256Z,2033.00
2023-06-27T02:28:05.324Z,2039.00
2023-06-27T02:29:05.399Z,2027.00
2023-06-27T02:30:05.450Z,2013.00
2023-06-27T02:31:05.592Z,2016.00
2023-06-27T02:32:05.570Z,2032.00
2023-06-27T02:33:05.649Z,2025.00
2023-06-27T02:34:05.678Z,2028.00
2023-06-27T02:35:05.737Z,2030.00
2023-06-27T02:36:05.796Z,2017.00
2023-06-27T02:37:05.881Z,2018.00
2023-06-27T02:38:05.928Z,2018.00
2023-06-27T02:39:05.985Z,2007.00
2023-06-27T02:40:06.050Z,2013.00
2023-06-27T02:41:06.102Z,2006.00
2023-06-27T02:42:06.170Z,2013.00
2023-06-27T02:43:06.213Z,2016.00
2023-06-27T02:44:06.284Z,2004.00
2023-06-27T02:45:06.345Z,2010.00
2023-06-27T02:46:06.445Z,2002.00
2023-06-27T02:47:06.494Z,2009.00
2023-06-27T02:48:06.561Z,2007.00
2023-06-27T02:49:06.611Z,2002.00
2023-06-27T02:50:06.656Z,2009.00
2023-06-27T02:51:06.713Z,1991.00
2023-06-27T02:52:06.772Z,1996.00
2023-06-27T02:53:06.860Z,2001.00
2023-06-27T02:54:07.347Z,1992.00
2023-06-27T02:55:06.970Z,1995.00
2023-06-27T02:56:07.032Z,2007.00
2023-06-27T02:57:07.050Z,1992.00
2023-06-27T02:58:07.101Z,1994.00
2023-06-27T02:59:07.352Z,1990.00
2023-06-27T03:00:07.206Z,2002.00
2023-06-27T03:01:07.269Z,1995.00
2023-06-27T03:02:07.399Z,1996.00
2023-06-27T03:03:07.427Z,1990.00
2023-06-27T03:04:17.739Z,1978.00
2023-06-27T03:05:08.395Z,1980.00
2023-06-27T03:06:07.403Z,1983.00
2023-06-27T03:07:07.497Z,1986.00
2023-06-27T03:08:07.497Z,1987.00
2023-06-27T03:09:07.855Z,1996.00
2023-06-27T03:10:07.619Z,1990.00
2023-06-27T03:11:07.685Z,1994.00
2023-06-27T03:12:07.729Z,1989.00
2023-06-27T03:13:07.774Z,1988.00
2023-06-27T03:14:07.837Z,1980.00
2023-06-27T03:15:07.889Z,1977.00
2023-06-27T03:16:07.928Z,1969.00
2023-06-27T03:17:07.985Z,1983.00
2023-06-27T03:18:08.073Z,1989.00
2023-06-27T03:19:08.059Z,1972.00
2023-06-27T03:20:08.110Z,1971.00
2023-06-27T03:21:08.144Z,1959.00
2023-06-27T03:22:08.220Z,1962.00
2023-06-27T03:23:08.256Z,1972.00
2023-06-27T03:24:08.318Z,1965.00
2023-06-27T03:25:08.363Z,1978.00
2023-06-27T03:26:08.402Z,1953.00
2023-06-27T03:27:08.874Z,1964.00
2023-06-27T03:28:08.517Z,1961.00
2023-06-27T03:29:08.566Z,1953.00
2023-06-27T03:30:08.637Z,1959.00
2023-06-27T03:31:08.651Z,1956.00
2023-06-27T03:32:08.743Z,1953.00
2023-06-27T03:33:08.822Z,1944.00
2023-06-27T03:34:08.807Z,1946.00
2023-06-27T03:35:08.819Z,1959.00
2023-06-27T03:36:09.975Z,1952.00
2023-06-27T03:37:09.071Z,1957.00
2023-06-27T03:38:09.113Z,1948.00
2023-06-27T03:39:09.157Z,1956.00
2023-06-27T03:40:09.199Z,1957.00
2023-06-27T03:41:09.235Z,1945.00
2023-06-27T03:42:09.280Z,1949.00
2023-06-27T03:43:09.282Z,1936.00
2023-06-27T03:44:09.377Z,1947.00
2023-06-27T03:45:09.352Z,1944.00
2023-06-27T03:46:09.407Z,1945.00
2023-06-27T03:47:09.434Z,1948.00
2023-06-27T03:48:09.463Z,1939.00
2023-06-27T03:49:09.500Z,1931.00
2023-06-27T03:50:09.533Z,1938.00
2023-06-27T03:51:09.583Z,1945.00
2023-06-27T03:52:09.603Z,1938.00
2023-06-27T03:53:09.632Z,1926.00
2023-06-27T03:54:09.646Z,1923.00
2023-06-27T03:55:09.678Z,1936.00
2023-06-27T03:56:09.682Z,1927.00
2023-06-27T03:57:09.713Z,1925.00
2023-06-27T03:58:09.717Z,1922.00
2023-06-27T03:59:09.745Z,1929.00
2023-06-27T04:00:09.765Z,1916.00
2023-06-27T04:01:09.772Z,1930.00
2023-06-27T04:02:09.790Z,1923.00
2023-06-27T04:03:09.883Z,1932.00
2023-06-27T04:04:11.629Z,1921.00
2023-06-27T04:05:09.876Z,1918.00
2023-06-27T04:06:09.784Z,1916.00
2023-06-27T04:07:09.844Z,1911.00
2023-06-27T04:08:09.764Z,1912.00
2023-06-27T04:09:09.761Z,1918.00
2023-06-27T04:10:09.755Z,1908.00
2023-06-27T04:11:09.765Z,1903.00
2023-06-27T04:12:09.773Z,1918.00
2023-06-27T04:13:09.739Z,1908.00
2023-06-27T04:14:09.727Z,1905.00
2023-06-27T04:15:09.712Z,1897.00
2023-06-27T04:16:09.715Z,1905.00
2023-06-27T04:17:09.839Z,1896.00
2023-06-27T04:18:09.757Z,1902.00
2023-06-27T04:19:09.705Z,1890.00
2023-06-27T04:20:09.697Z,1887.00
2023-06-27T04:21:09.684Z,1893.00
2023-06-27T04:22:09.675Z,1895.00
2023-06-27T04:23:09.698Z,1895.00
2023-06-27T04:24:09.895Z,1872.00
2023-06-27T04:25:09.656Z,1901.00
2023-06-27T04:26:09.647Z,1887.00
2023-06-27T04:27:09.649Z,1881.00
2023-06-27T04:28:09.630Z,1870.00
2023-06-27T04:29:09.648Z,1879.00
2023-06-27T04:30:09.639Z,1876.00
2023-06-27T04:31:09.625Z,1882.00
2023-06-27T04:32:09.708Z,1886.00
2023-06-27T04:33:09.677Z,1875.00
2023-06-27T04:34:09.606Z,1877.00
2023-06-27T04:35:09.596Z,1870.00
2023-06-27T04:36:09.580Z,1876.00
2023-06-27T04:37:09.588Z,1880.00
2023-06-27T04:38:10.323Z,1870.00
2023-06-27T04:39:09.560Z,1872.00
2023-06-27T04:40:09.555Z,1870.00
2023-06-27T04:41:09.542Z,1882.00
2023-06-27T04:42:09.533Z,1878.00
2023-06-27T04:43:09.533Z,1869.00
2023-06-27T04:44:09.539Z,1854.00
2023-06-27T04:45:09.515Z,1858.00
2023-06-27T04:46:09.533Z,1864.00
2023-06-27T04:47:09.508Z,1864.00
2023-06-27T04:48:09.507Z,1852.00
2023-06-27T04:49:09.495Z,1862.00
2023-06-27T04:50:09.479Z,1867.00
2023-06-27T04:51:09.499Z,1858.00
2023-06-27T04:52:09.467Z,1856.00
2023-06-27T04:53:09.483Z,1864.00
2023-06-27T04:54:09.484Z,1848.00
2023-06-27T04:55:09.454Z,1862.00
2023-06-27T04:56:09.432Z,1849.00
2023-06-27T04:57:13.083Z,1842.00
2023-06-27T04:58:09.445Z,1843.00
2023-06-27T04:59:09.429Z,1844.00
2023-06-27T05:00:09.412Z,1848.00
2023-06-27T05:01:09.459Z,1849.00
2023-06-27T05:02:09.410Z,1853.00
2023-06-27T05:03:09.450Z,1861.00
2023-06-27T05:04:09.388Z,1853.00
2023-06-27T05:05:09.494Z,1845.00
2023-06-27T05:06:09.380Z,1854.00
2023-06-27T05:07:09.422Z,1835.00
2023-06-27T05:08:09.360Z,1834.00
2023-06-27T05:09:09.367Z,1847.00
2023-06-27T05:10:09.349Z,1834.00
2023-06-27T05:11:09.341Z,1828.00
2023-06-27T05:12:09.363Z,1834.00
2023-06-27T05:13:09.323Z,1840.00
2023-06-27T05:14:09.337Z,1834.00
2023-06-27T05:15:09.311Z,1829.00
2023-06-27T05:16:09.318Z,1821.00
2023-06-27T05:17:09.313Z,1829.00
2023-06-27T05:18:09.288Z,1827.00
2023-06-27T05:19:09.299Z,1842.00
2023-06-27T05:20:09.283Z,1813.00
2023-06-27T05:21:09.283Z,1823.00
2023-06-27T05:22:09.271Z,1812.00
2023-06-27T05:23:09.281Z,1816.00
2023-06-27T05:24:09.268Z,1815.00
2023-06-27T05:25:09.270Z,1818.00
2023-06-27T05:26:09.260Z,1813.00
2023-06-27T05:27:09.237Z,1804.00
2023-06-27T05:28:09.410Z,1806.00
2023-06-27T05:29:09.309Z,1806.00
2023-06-27T05:30:09.360Z,1827.00
2023-06-27T05:31:09.463Z,1821.00
2023-06-27T05:32:09.438Z,1812.00
2023-06-27T05:33:09.563Z,1818.00
2023-06-27T05:34:09.504Z,1815.00
2023-06-27T05:35:09.522Z,1712.00
2023-06-27T05:36:09.674Z,1549.00
2023-06-27T05:37:09.664Z,948.00
2023-06-27T05:38:09.604Z,630.00
2023-06-27T05:39:09.630Z,715.00
2023-06-27T05:40:09.614Z,762.00
2023-06-27T05:41:09.662Z,635.00
2023-06-27T05:42:09.673Z,537.00
2023-06-27T05:43:09.692Z,484.00
2023-06-27T05:44:09.673Z,483.00
2023-06-27T05:45:09.662Z,502.00
2023-06-27T05:46:09.643Z,516.00
2023-06-27T05:47:09.654Z,500.00
2023-06-27T05:48:09.693Z,500.00
2023-06-27T05:49:09.656Z,517.00
2023-06-27T05:50:09.677Z,511.00
2023-06-27T05:51:09.756Z,504.00
2023-06-27T05:52:09.678Z,570.00
2023-06-27T05:53:09.700Z,519.00
2023-06-27T05:54:09.701Z,522.00
2023-06-27T05:55:09.716Z,561.00
2023-06-27T05:56:09.741Z,560.00
2023-06-27T05:57:09.751Z,573.00
2023-06-27T05:58:09.755Z,607.00
2023-06-27T05:59:09.816Z,563.00
2023-06-27T06:00:09.803Z,562.00
2023-06-27T06:01:09.766Z,620.00
2023-06-27T06:02:09.854Z,666.00
2023-06-27T06:03:09.933Z,744.00
2023-06-27T06:04:09.841Z,783.00
2023-06-27T06:05:09.814Z,856.00
2023-06-27T06:06:09.773Z,891.00
2023-06-27T06:07:09.803Z,978.00
2023-06-27T06:08:09.785Z,1032.00
2023-06-27T06:09:09.803Z,1112.00
2023-06-27T06:10:09.879Z,1240.00
2023-06-27T06:11:09.856Z,1310.00
2023-06-27T06:12:09.952Z,1319.00
2023-06-27T06:13:09.982Z,1298.00
2023-06-27T06:14:10.109Z,1364.00
2023-06-27T06:15:10.123Z,1486.00
2023-06-27T06:16:10.185Z,1546.00
2023-06-27T06:17:10.238Z,1605.00
2023-06-27T06:18:10.394Z,1611.00
2023-06-27T06:19:10.359Z,1618.00
2023-06-27T06:20:10.513Z,1583.00
2023-06-27T06:21:10.454Z,1406.00
2023-06-27T06:22:10.499Z,1314.00
2023-06-27T06:23:10.513Z,1060.00
2023-06-27T06:24:10.519Z,1067.00
2023-06-27T06:25:10.529Z,805.00
2023-06-27T06:26:10.553Z,820.00
2023-06-27T06:27:10.558Z,651.00
2023-06-27T06:28:10.546Z,655.00
2023-06-27T06:29:10.952Z,544.00
2023-06-27T06:30:10.582Z,546.00
2023-06-27T06:31:10.627Z,591.00
2023-06-27T06:32:10.630Z,560.00
2023-06-27T06:33:10.659Z,617.00
2023-06-27T06:34:10.635Z,541.00
2023-06-27T06:35:10.640Z,500.00
2023-06-27T06:36:10.626Z,500.00
2023-06-27T06:37:10.669Z,514.00
2023-06-27T06:38:10.631Z,506.00
2023-06-27T06:39:10.990Z,529.00
2023-06-27T06:40:10.650Z,538.00
2023-06-27T06:41:10.659Z,539.00
2023-06-27T06:42:10.685Z,515.00
2023-06-27T06:43:10.714Z,515.00
2023-06-27T06:44:10.717Z,529.00
2023-06-27T06:45:10.761Z,566.00
2023-06-27T06:46:10.884Z,548.00
2023-06-27T06:47:10.759Z,536.00
2023-06-27T06:48:10.777Z,510.00
2023-06-27T06:49:10.801Z,516.00
2023-06-27T06:50:10.795Z,563.00
2023-06-27T06:51:10.811Z,564.00
2023-06-27T06:52:10.818Z,587.00
2023-06-27T06:53:10.831Z,578.00
2023-06-27T06:54:10.828Z,626.00
2023-06-27T06:55:10.832Z,616.00
2023-06-27T06:56:10.845Z,648.00
2023-06-27T06:57:10.851Z,652.00
2023-06-27T06:58:11.898Z,604.00
2023-06-27T06:59:10.912Z,540.00
2023-06-27T07:00:10.884Z,532.00
2023-06-27T07:01:11.000Z,551.00
2023-06-27T07:02:10.940Z,484.00
2023-06-27T07:03:10.996Z,515.00
2023-06-27T07:04:11.028Z,526.00
2023-06-27T07:05:10.974Z,511.00
2023-06-27T07:06:10.977Z,505.00
2023-06-27T07:07:11.075Z,500.00
2023-06-27T07:08:11.040Z,500.00
2023-06-27T07:09:11.052Z,453.00
2023-06-27T07:10:11.079Z,500.00
2023-06-27T07:11:11.091Z,499.00
2023-06-27T07:12:11.285Z,497.00
2023-06-27T07:13:11.169Z,502.00
2023-06-27T07:14:11.229Z,540.00
2023-06-27T07:15:11.240Z,549.00
2023-06-27T07:16:11.363Z,582.00
2023-06-27T07:17:11.320Z,551.00
2023-06-27T07:18:11.359Z,601.00
2023-06-27T07:19:11.403Z,563.00
2023-06-27T07:20:11.446Z,528.00
2023-06-27T07:21:11.543Z,551.00
2023-06-27T07:22:11.632Z,532.00
2023-06-27T07:23:11.607Z,586.00
2023-06-27T07:24:11.678Z,572.00
2023-06-27T07:25:11.721Z,538.00
2023-06-27T07:26:11.770Z,528.00
2023-06-27T07:27:11.853Z,567.00
2023-06-27T07:28:11.886Z,566.00
2023-06-27T07:29:12.009Z,578.00
2023-06-27T07:30:12.007Z,570.00
2023-06-27T07:31:12.189Z,578.00
2023-06-27T07:32:12.120Z,610.00
2023-06-27T07:33:12.219Z,610.00
2023-06-27T07:34:12.276Z,595.00
2023-06-27T07:35:12.330Z,616.00
2023-06-27T07:36:12.383Z,828.00
2023-06-27T07:37:12.419Z,1079.00
2023-06-27T07:38:12.446Z,922.00
2023-06-27T07:39:12.506Z,885.00
2023-06-27T07:40:12.538Z,925.00
2023-06-27T07:41:12.570Z,1047.00
2023-06-27T07:42:12.581Z,1115.00
2023-06-27T07:43:12.622Z,1128.00
2023-06-27T07:44:13.054Z,927.00
2023-06-27T07:45:12.634Z,1140.00
2023-06-27T07:46:12.620Z,1155.00
2023-06-27T07:47:12.605Z,1225.00
2023-06-27T07:48:12.711Z,1019.00
2023-06-27T07:49:12.966Z,1133.00
2023-06-27T07:50:12.657Z,1032.00
2023-06-27T07:51:12.663Z,1138.00
2023-06-27T07:52:12.656Z,866.00
2023-06-27T07:53:12.750Z,1012.00
2023-06-27T07:54:12.727Z,900.00
2023-06-27T07:55:12.708Z,760.00
2023-06-27T07:56:12.700Z,664.00
2023-06-27T07:57:12.728Z,838.00
2023-06-27T07:58:12.785Z,792.00
2023-06-27T07:59:12.972Z,810.00
2023-06-27T08:00:13.908Z,788.00
2023-06-27T08:01:12.877Z,789.00
2023-06-27T08:02:12.931Z,839.00
2023-06-27T08:03:13.033Z,1112.00
2023-06-27T08:04:13.038Z,1229.00
2023-06-27T08:05:12.963Z,1132.00
2023-06-27T08:06:12.974Z,1077.00
2023-06-27T08:07:13.150Z,1164.00
2023-06-27T08:08:13.064Z,1162.00
2023-06-27T08:09:13.525Z,1121.00
2023-06-27T08:10:13.151Z,1108.00
2023-06-27T08:11:13.111Z,1147.00
2023-06-27T08:12:13.131Z,1199.00
2023-06-27T08:13:13.158Z,1144.00
2023-06-27T08:14:13.150Z,1129.00
2023-06-27T08:15:13.167Z,1103.00
2023-06-27T08:16:13.209Z,1160.00
2023-06-27T08:17:13.242Z,1289.00
2023-06-27T08:18:13.303Z,1183.00
2023-06-27T08:19:13.252Z,1149.00
2023-06-27T08:20:13.305Z,1138.00
2023-06-27T08:21:13.334Z,1175.00
2023-06-27T08:22:13.320Z,1294.00
2023-06-27T08:23:13.346Z,1316.00
2023-06-27T08:24:13.524Z,1715.00
2023-06-27T08:25:13.406Z,1433.00
2023-06-27T08:26:13.440Z,1190.00
2023-06-27T08:27:13.471Z,1067.00
2023-06-27T08:28:13.518Z,1131.00
2023-06-27T08:29:13.539Z,1156.00
2023-06-27T08:30:13.571Z,1194.00
2023-06-27T08:31:13.705Z,1002.00
2023-06-27T08:32:13.662Z,1062.00
2023-06-27T08:33:13.770Z,1118.00
2023-06-27T08:34:13.736Z,1217.00
2023-06-27T08:35:13.769Z,1070.00
2023-06-27T08:36:13.878Z,1102.00
2023-06-27T08:37:13.845Z,1237.00
2023-06-27T08:38:13.895Z,1050.00
2023-06-27T08:39:13.985Z,1250.00
2023-06-27T08:40:13.994Z,1371.00
2023-06-27T08:41:14.012Z,1331.00
2023-06-27T08:42:14.018Z,1516.00
2023-06-27T08:43:14.054Z,1615.00
2023-06-27T08:44:14.091Z,1779.00
2023-06-27T08:45:14.098Z,1994.00
2023-06-27T08:46:14.124Z,2093.00
2023-06-27T08:47:14.116Z,2139.00
2023-06-27T08:48:14.110Z,2167.00
2023-06-27T08:49:14.112Z,2242.00
2023-06-27T08:50:14.087Z,2196.00
2023-06-27T08:51:14.105Z,2108.00
2023-06-27T08:52:14.101Z,2248.00
2023-06-27T08:53:14.104Z,2291.00
2023-06-27T08:54:14.106Z,2485.00
2023-06-27T08:55:14.154Z,2534.00
2023-06-27T08:56:14.116Z,2554.00
2023-06-27T08:57:14.163Z,2599.00
2023-06-27T08:58:14.187Z,2568.00
2023-06-27T08:59:14.527Z,2545.00
2023-06-27T09:00:14.307Z,2520.00
2023-06-27T09:01:14.404Z,2359.00
2023-06-27T09:02:14.385Z,2410.00
2023-06-27T09:03:14.530Z,2262.00
2023-06-27T09:04:14.706Z,2116.00
2023-06-27T09:05:14.533Z,1968.00
2023-06-27T09:06:14.506Z,1574.00
2023-06-27T09:07:14.550Z,1347.00
2023-06-27T09:08:14.544Z,1247.00
2023-06-27T09:09:15.009Z,1351.00
2023-06-27T09:10:14.571Z,1254.00
2023-06-27T09:11:14.550Z,1084.00
2023-06-27T09:12:14.543Z,1003.00
2023-06-27T09:13:14.573Z,1191.00
2023-06-27T09:14:14.590Z,1437.00
2023-06-27T09:15:14.596Z,1517.00
2023-06-27T09:16:14.730Z,1570.00
2023-06-27T09:17:14.593Z,1791.00
2023-06-27T09:18:14.629Z,1724.00
2023-06-27T09:19:14.643Z,1844.00
2023-06-27T09:20:14.645Z,1887.00
2023-06-27T09:21:14.621Z,1733.00
2023-06-27T09:22:14.613Z,1697.00
2023-06-27T09:23:14.597Z,1674.00
2023-06-27T09:24:15.109Z,1676.00
2023-06-27T09:25:14.594Z,1653.00
2023-06-27T09:26:14.582Z,1668.00
2023-06-27T09:27:14.606Z,1650.00
2023-06-27T09:28:14.618Z,1630.00
2023-06-27T09:29:15.018Z,1445.00
2023-06-27T09:30:14.658Z,1361.00
2023-06-27T09:31:14.738Z,1550.00
2023-06-27T09:32:14.620Z,1661.00
2023-06-27T09:33:14.605Z,1596.00
2023-06-27T09:34:15.033Z,1546.00
2023-06-27T09:35:15.541Z,1464.00
2023-06-27T09:36:14.658Z,1488.00
2023-06-27T09:39:15.055Z,1258.00
2023-06-27T09:40:14.588Z,1289.00
2023-06-27T09:41:14.564Z,1215.00
2023-06-27T09:42:14.581Z,1293.00
2023-06-27T09:43:14.652Z,1196.00
2023-06-27T09:44:14.638Z,1271.00
2023-06-27T09:45:14.577Z,1260.00
2023-06-27T09:46:14.535Z,1319.00
2023-06-27T09:47:14.552Z,1290.00
2023-06-27T09:48:14.542Z,1162.00
2023-06-27T09:49:15.034Z,962.00
2023-06-27T09:50:14.507Z,890.00
2023-06-27T09:51:14.512Z,863.00
2023-06-27T09:52:14.495Z,832.00
2023-06-27T09:53:14.486Z,780.00
2023-06-27T09:54:17.677Z,893.00
2023-06-27T09:55:14.477Z,787.00
2023-06-27T09:56:14.488Z,746.00
2023-06-27T09:57:14.516Z,651.00
2023-06-27T09:58:14.456Z,640.00
2023-06-27T09:59:23.042Z,629.00
2023-06-27T10:00:15.454Z,618.00
2023-06-27T10:01:14.457Z,600.00
2023-06-27T10:02:14.476Z,597.00
2023-06-27T10:03:14.506Z,587.00
2023-06-27T10:04:14.465Z,608.00
2023-06-27T10:05:14.504Z,627.00
2023-06-27T10:06:14.635Z,618.00
2023-06-27T10:07:14.656Z,615.00
2023-06-27T10:08:14.408Z,585.00
2023-06-27T10:09:14.445Z,588.00
2023-06-27T10:10:14.407Z,593.00
2023-06-27T10:11:14.373Z,597.00
2023-06-27T10:12:14.373Z,602.00
2023-06-27T10:13:14.394Z,584.00
2023-06-27T10:14:14.583Z,570.00
2023-06-27T10:15:14.354Z,528.00
2023-06-27T10:16:14.350Z,580.00
2023-06-27T10:17:14.517Z,601.00
2023-06-27T10:18:14.339Z,590.00
2023-06-27T10:19:14.370Z,571.00
2023-06-27T10:20:14.330Z,577.00
2023-06-27T10:21:14.316Z,554.00
2023-06-27T10:22:14.316Z,535.00
2023-06-27T10:23:14.366Z,556.00
2023-06-27T10:24:14.347Z,592.00
2023-06-27T10:25:14.301Z,566.00
2023-06-27T10:26:14.301Z,644.00
2023-06-27T10:27:14.466Z,666.00
2023-06-27T10:28:14.271Z,786.00
2023-06-27T10:29:14.294Z,983.00
2023-06-27T10:30:14.262Z,1023.00
2023-06-27T10:31:14.326Z,1311.00
2023-06-27T10:32:14.259Z,1340.00
2023-06-27T10:33:14.268Z,1468.00
2023-06-27T10:34:14.551Z,1563.00
2023-06-27T10:35:14.321Z,1662.00
2023-06-27T10:36:14.423Z,1615.00
2023-06-27T10:37:14.409Z,1553.00
2023-06-27T10:38:14.437Z,1540.00
2023-06-27T10:39:14.550Z,1571.00
2023-06-27T10:40:15.161Z,1415.00
2023-06-27T10:41:14.624Z,1397.00
2023-06-27T10:42:14.625Z,1284.00
2023-06-27T10:43:14.648Z,1323.00
2023-06-27T10:44:14.673Z,1360.00
2023-06-27T10:45:15.044Z,1355.00
2023-06-27T10:46:14.705Z,1237.00
2023-06-27T10:47:14.698Z,1289.00
2023-06-27T10:48:14.804Z,1319.00
2023-06-27T10:49:15.073Z,1313.00
2023-06-27T10:50:14.781Z,1320.00
2023-06-27T10:51:14.747Z,1289.00
2023-06-27T10:52:14.801Z,1270.00
2023-06-27T10:53:14.865Z,1299.00
2023-06-27T10:54:14.846Z,1351.00
2023-06-27T10:55:14.920Z,1377.00
2023-06-27T10:56:14.887Z,1255.00
2023-06-27T10:57:14.915Z,1251.00
2023-06-27T10:58:14.951Z,1316.00
2023-06-27T10:59:14.963Z,1275.00
2023-06-27T11:00:14.967Z,1184.00
2023-06-27T11:01:14.998Z,1356.00
2023-06-27T11:02:15.154Z,1292.00
2023-06-27T11:03:15.218Z,1347.00
2023-06-27T11:04:15.330Z,1319.00
2023-06-27T11:05:15.246Z,1395.00
2023-06-27T11:06:15.233Z,1280.00
2023-06-27T11:07:15.221Z,1259.00
2023-06-27T11:08:15.249Z,1313.00
2023-06-27T11:09:15.298Z,1315.00
2023-06-27T11:10:15.333Z,1353.00
2023-06-27T11:11:15.395Z,1329.00
2023-06-27T11:12:15.463Z,1291.00
2023-06-27T11:13:15.468Z,1260.00
2023-06-27T11:14:15.480Z,1284.00
2023-06-27T11:15:15.529Z,1361.00
2023-06-27T11:16:15.572Z,1499.00
2023-06-27T11:17:15.621Z,1632.00
2023-06-27T11:18:15.671Z,1748.00
2023-06-27T11:19:20.663Z,1971.00
2023-06-27T11:20:16.721Z,1977.00
2023-06-27T11:21:16.681Z,2002.00
2023-06-27T11:22:15.718Z,2056.00
2023-06-27T11:23:15.708Z,2153.00
2023-06-27T11:24:15.728Z,2282.00
2023-06-27T11:25:15.707Z,2331.00
2023-06-27T11:26:15.697Z,2337.00
2023-06-27T11:27:15.673Z,2407.00
2023-06-27T11:28:15.680Z,2439.00
2023-06-27T11:29:15.689Z,2462.00
2023-06-27T11:30:15.662Z,2530.00
2023-06-27T11:31:15.664Z,2576.00
2023-06-27T11:32:15.653Z,2620.00
2023-06-27T11:33:15.688Z,2639.00
2023-06-27T11:34:15.758Z,2649.00
2023-06-27T11:35:15.776Z,2664.00
2023-06-27T11:36:15.804Z,2695.00
2023-06-27T11:37:15.854Z,2733.00
2023-06-27T11:38:15.892Z,2773.00
2023-06-27T11:39:15.940Z,2820.00
2023-06-27T11:40:15.954Z,2829.00
2023-06-27T11:41:15.997Z,2834.00
2023-06-27T11:42:16.050Z,2854.00
2023-06-27T11:43:16.098Z,2855.00
2023-06-27T11:44:19.096Z,2907.00
2023-06-27T11:45:16.091Z,2943.00
2023-06-27T11:46:16.082Z,2975.00
2023-06-27T11:47:16.081Z,2983.00
2023-06-27T11:48:16.120Z,2991.00
2023-06-27T11:49:16.075Z,3003.00
2023-06-27T11:50:16.061Z,3009.00
2023-06-27T11:51:16.054Z,3042.00
2023-06-27T11:52:16.058Z,3060.00
2023-06-27T11:53:16.053Z,3073.00
2023-06-27T11:54:16.069Z,3068.00
2023-06-27T11:55:16.060Z,3069.00
2023-06-27T11:57:16.110Z,3076.00
2023-06-27T11:58:16.009Z,3081.00
2023-06-27T11:59:16.028Z,3089.00
2023-06-27T12:00:18.075Z,3112.00
2023-06-27T12:01:16.053Z,3079.00
2023-06-27T12:02:15.984Z,3087.00
2023-06-27T12:03:16.160Z,3107.00
2023-06-27T12:04:16.069Z,3127.00
2023-06-27T12:05:16.000Z,3184.00
2023-06-27T12:06:17.508Z,3175.00
2023-06-27T12:07:16.063Z,3176.00
2023-06-27T12:08:15.945Z,3180.00
2023-06-27T12:09:15.964Z,3182.00
2023-06-27T12:10:15.945Z,3189.00
2023-06-27T12:11:15.959Z,3196.00
2023-06-27T12:12:18.785Z,3204.00
2023-06-27T12:13:15.985Z,3205.00
2023-06-27T12:14:15.936Z,3210.00